sensor_id;sensor_type;location;lat;lon;timestamp;pressure;altitude;pressure_sealevel;temperature;humidity
57900;BME280;60605;53.716;19.940;2024-03-22T00:02:58;100526.27;;;5.99;100.00
57900;BME280;60605;53.716;19.940;2024-03-22T00:08:01;100523.86;;;5.98;100.00
57900;BME280;60605;53.716;19.940;2024-03-22T00:13:04;100520.10;;;5.96;100.00
57900;BME280;60605;53.716;19.940;2024-03-22T00:18:07;100518.18;;;5.94;100.00
57900;BME280;60605;53.716;19.940;2024-03-22T00:23:10;100518.01;;;5.89;100.00
57900;BME280;60605;53.716;19.940;2024-03-22T00:28:14;100524.22;;;5.82;100.00
57900;BME280;60605;53.716;19.940;2024-03-22T00:33:17;100522.08;;;5.77;100.00
57900;BME280;60605;53.716;19.940;2024-03-22T00:38:20;100520.49;;;5.75;100.00
57900;BME280;60605;53.716;19.940;2024-03-22T00:43:23;100521.89;;;5.71;100.00
57900;BME280;60605;53.716;19.940;2024-03-22T00:48:26;100526.11;;;5.64;100.00
57900;BME280;60605;53.716;19.940;2024-03-22T00:53:30;100522.23;;;5.59;100.00
57900;BME280;60605;53.716;19.940;2024-03-22T00:58:33;100527.30;;;5.58;100.00
57900;BME280;60605;53.716;19.940;2024-03-22T01:03:36;100524.89;;;5.57;100.00
57900;BME280;60605;53.716;19.940;2024-03-22T01:08:39;100525.27;;;5.56;100.00
57900;BME280;60605;53.716;19.940;2024-03-22T01:13:42;100525.90;;;5.55;100.00
57900;BME280;60605;53.716;19.940;2024-03-22T01:18:46;100529.48;;;5.52;100.00
57900;BME280;60605;53.716;19.940;2024-03-22T01:23:49;100525.20;;;5.47;100.00
57900;BME280;60605;53.716;19.940;2024-03-22T01:28:52;100522.35;;;5.45;100.00
57900;BME280;60605;53.716;19.940;2024-03-22T01:33:58;100516.43;;;5.41;100.00
57900;BME280;60605;53.716;19.940;2024-03-22T01:39:01;100514.55;;;5.36;100.00
57900;BME280;60605;53.716;19.940;2024-03-22T01:44:04;100513.04;;;5.33;100.00
57900;BME280;60605;53.716;19.940;2024-03-22T01:49:12;100512.16;;;5.30;100.00
57900;BME280;60605;53.716;19.940;2024-03-22T01:54:16;100508.61;;;5.30;100.00
57900;BME280;60605;53.716;19.940;2024-03-22T01:59:19;100501.72;;;5.30;100.00
57900;BME280;60605;53.716;19.940;2024-03-22T02:04:22;100502.09;;;5.30;100.00
57900;BME280;60605;53.716;19.940;2024-03-22T02:09:26;100505.04;;;5.30;100.00
57900;BME280;60605;53.716;19.940;2024-03-22T02:14:29;100493.09;;;5.29;100.00
57900;BME280;60605;53.716;19.940;2024-03-22T02:19:32;100495.04;;;5.25;100.00
57900;BME280;60605;53.716;19.940;2024-03-22T02:24:35;100495.87;;;5.23;100.00
57900;BME280;60605;53.716;19.940;2024-03-22T02:29:38;100497.23;;;5.24;100.00
57900;BME280;60605;53.716;19.940;2024-03-22T02:34:41;100495.85;;;5.23;100.00
57900;BME280;60605;53.716;19.940;2024-03-22T02:40:02;100506.36;;;5.25;100.00
57900;BME280;60605;53.716;19.940;2024-03-22T02:45:05;100508.85;;;5.25;100.00
57900;BME280;60605;53.716;19.940;2024-03-22T02:50:08;100499.48;;;5.22;100.00
57900;BME280;60605;53.716;19.940;2024-03-22T02:55:11;100496.31;;;5.17;100.00
57900;BME280;60605;53.716;19.940;2024-03-22T03:00:14;100489.14;;;5.14;100.00
57900;BME280;60605;53.716;19.940;2024-03-22T03:05:17;100489.58;;;5.10;100.00
57900;BME280;60605;53.716;19.940;2024-03-22T03:10:20;100484.13;;;5.07;100.00
57900;BME280;60605;53.716;19.940;2024-03-22T03:15:23;100484.88;;;5.09;100.00
57900;BME280;60605;53.716;19.940;2024-03-22T03:20:26;100482.77;;;5.11;100.00
57900;BME280;60605;53.716;19.940;2024-03-22T03:25:29;100476.97;;;5.13;100.00
57900;BME280;60605;53.716;19.940;2024-03-22T03:30:32;100475.73;;;5.13;100.00
57900;BME280;60605;53.716;19.940;2024-03-22T03:35:35;100480.75;;;5.12;100.00
57900;BME280;60605;53.716;19.940;2024-03-22T03:40:39;100481.48;;;5.14;100.00
57900;BME280;60605;53.716;19.940;2024-03-22T03:45:41;100474.72;;;5.15;100.00
57900;BME280;60605;53.716;19.940;2024-03-22T03:50:50;100469.58;;;5.14;100.00
57900;BME280;60605;53.716;19.940;2024-03-22T03:55:53;100467.22;;;5.13;100.00
57900;BME280;60605;53.716;19.940;2024-03-22T04:00:56;100465.90;;;5.12;100.00
57900;BME280;60605;53.716;19.940;2024-03-22T04:06:00;100461.95;;;5.12;100.00
57900;BME280;60605;53.716;19.940;2024-03-22T04:11:03;100464.88;;;5.14;100.00
57900;BME280;60605;53.716;19.940;2024-03-22T04:16:07;100461.77;;;5.15;100.00
57900;BME280;60605;53.716;19.940;2024-03-22T04:21:10;100450.38;;;5.16;100.00
57900;BME280;60605;53.716;19.940;2024-03-22T04:26:12;100448.67;;;5.17;100.00
57900;BME280;60605;53.716;19.940;2024-03-22T04:31:16;100441.49;;;5.18;100.00
57900;BME280;60605;53.716;19.940;2024-03-22T04:36:18;100447.14;;;5.19;100.00
57900;BME280;60605;53.716;19.940;2024-03-22T04:41:21;100460.49;;;5.20;100.00
57900;BME280;60605;53.716;19.940;2024-03-22T04:46:24;100459.17;;;5.21;100.00
57900;BME280;60605;53.716;19.940;2024-03-22T04:51:28;100450.92;;;5.23;100.00
57900;BME280;60605;53.716;19.940;2024-03-22T04:56:30;100447.19;;;5.23;100.00
57900;BME280;60605;53.716;19.940;2024-03-22T05:01:33;100455.70;;;5.25;100.00
57900;BME280;60605;53.716;19.940;2024-03-22T05:06:37;100454.39;;;5.28;100.00
57900;BME280;60605;53.716;19.940;2024-03-22T05:11:40;100455.13;;;5.30;100.00
57900;BME280;60605;53.716;19.940;2024-03-22T05:16:44;100452.35;;;5.32;100.00
57900;BME280;60605;53.716;19.940;2024-03-22T05:21:47;100449.95;;;5.33;100.00
57900;BME280;60605;53.716;19.940;2024-03-22T05:26:50;100452.59;;;5.36;100.00
57900;BME280;60605;53.716;19.940;2024-03-22T05:31:54;100458.17;;;5.39;100.00
57900;BME280;60605;53.716;19.940;2024-03-22T05:36:58;100455.01;;;5.43;100.00
57900;BME280;60605;53.716;19.940;2024-03-22T05:42:05;100452.80;;;5.49;100.00
57900;BME280;60605;53.716;19.940;2024-03-22T05:47:09;100457.77;;;5.58;100.00
57900;BME280;60605;53.716;19.940;2024-03-22T05:52:19;100456.27;;;5.64;100.00
57900;BME280;60605;53.716;19.940;2024-03-22T05:57:22;100453.70;;;5.65;100.00
57900;BME280;60605;53.716;19.940;2024-03-22T06:02:25;100445.77;;;5.65;100.00
57900;BME280;60605;53.716;19.940;2024-03-22T06:07:28;100438.45;;;5.63;100.00
57900;BME280;60605;53.716;19.940;2024-03-22T06:12:33;100435.92;;;5.68;100.00
57900;BME280;60605;53.716;19.940;2024-03-22T06:17:37;100443.20;;;5.77;100.00
57900;BME280;60605;53.716;19.940;2024-03-22T06:22:41;100445.60;;;5.85;100.00
57900;BME280;60605;53.716;19.940;2024-03-22T06:27:44;100445.19;;;5.93;100.00
57900;BME280;60605;53.716;19.940;2024-03-22T06:32:47;100444.48;;;5.97;100.00
57900;BME280;60605;53.716;19.940;2024-03-22T06:37:50;100454.39;;;6.02;100.00
57900;BME280;60605;53.716;19.940;2024-03-22T06:42:53;100453.64;;;6.00;100.00
57900;BME280;60605;53.716;19.940;2024-03-22T06:47:57;100447.77;;;5.96;100.00
57900;BME280;60605;53.716;19.940;2024-03-22T06:53:00;100431.02;;;5.93;100.00
57900;BME280;60605;53.716;19.940;2024-03-22T07:10:11;100413.27;;;6.17;100.00
57900;BME280;60605;53.716;19.940;2024-03-22T07:15:15;100412.85;;;6.31;100.00
57900;BME280;60605;53.716;19.940;2024-03-22T07:20:18;100406.70;;;6.44;100.00
57900;BME280;60605;53.716;19.940;2024-03-22T07:25:24;100402.55;;;6.51;100.00
57900;BME280;60605;53.716;19.940;2024-03-22T07:30:27;100402.74;;;6.55;100.00
57900;BME280;60605;53.716;19.940;2024-03-22T07:35:30;100397.70;;;6.56;100.00
57900;BME280;60605;53.716;19.940;2024-03-22T07:40:35;100390.80;;;6.52;100.00
57900;BME280;60605;53.716;19.940;2024-03-22T07:45:38;100387.66;;;6.47;100.00
57900;BME280;60605;53.716;19.940;2024-03-22T07:50:41;100382.48;;;6.47;100.00
57900;BME280;60605;53.716;19.940;2024-03-22T07:55:45;100377.44;;;6.48;100.00
57900;BME280;60605;53.716;19.940;2024-03-22T08:00:47;100373.95;;;6.49;100.00
57900;BME280;60605;53.716;19.940;2024-03-22T08:05:50;100371.66;;;6.58;100.00
57900;BME280;60605;53.716;19.940;2024-03-22T08:10:53;100362.92;;;6.75;100.00
57900;BME280;60605;53.716;19.940;2024-03-22T08:15:57;100361.33;;;7.00;100.00
57900;BME280;60605;53.716;19.940;2024-03-22T08:21:00;100358.66;;;7.17;100.00
57900;BME280;60605;53.716;19.940;2024-03-22T08:26:04;100356.27;;;7.35;100.00
57900;BME280;60605;53.716;19.940;2024-03-22T08:31:08;100345.85;;;7.51;100.00
57900;BME280;60605;53.716;19.940;2024-03-22T08:36:10;100337.10;;;7.59;100.00
57900;BME280;60605;53.716;19.940;2024-03-22T08:41:13;100337.83;;;7.59;100.00
57900;BME280;60605;53.716;19.940;2024-03-22T08:46:17;100333.63;;;7.65;100.00
57900;BME280;60605;53.716;19.940;2024-03-22T08:51:20;100327.09;;;7.68;100.00
57900;BME280;60605;53.716;19.940;2024-03-22T08:56:23;100327.66;;;7.72;100.00
57900;BME280;60605;53.716;19.940;2024-03-22T09:01:26;100315.65;;;7.77;100.00
57900;BME280;60605;53.716;19.940;2024-03-22T09:06:29;100309.26;;;7.79;100.00
57900;BME280;60605;53.716;19.940;2024-03-22T09:11:33;100301.90;;;7.81;100.00
57900;BME280;60605;53.716;19.940;2024-03-22T09:16:36;100305.54;;;7.80;100.00
57900;BME280;60605;53.716;19.940;2024-03-22T09:21:39;100297.59;;;7.80;100.00
57900;BME280;60605;53.716;19.940;2024-03-22T09:26:42;100291.52;;;7.76;100.00
57900;BME280;60605;53.716;19.940;2024-03-22T09:31:45;100293.23;;;7.71;100.00
57900;BME280;60605;53.716;19.940;2024-03-22T09:36:48;100292.85;;;7.67;100.00
57900;BME280;60605;53.716;19.940;2024-03-22T09:41:51;100286.46;;;7.69;100.00
57900;BME280;60605;53.716;19.940;2024-03-22T09:46:54;100284.83;;;7.74;100.00
57900;BME280;60605;53.716;19.940;2024-03-22T09:51:59;100289.80;;;7.84;100.00
57900;BME280;60605;53.716;19.940;2024-03-22T09:57:02;100272.52;;;7.89;100.00
57900;BME280;60605;53.716;19.940;2024-03-22T10:02:05;100256.93;;;7.93;100.00
57900;BME280;60605;53.716;19.940;2024-03-22T10:07:11;100243.71;;;7.97;100.00
57900;BME280;60605;53.716;19.940;2024-03-22T10:12:16;100238.65;;;8.06;100.00
57900;BME280;60605;53.716;19.940;2024-03-22T10:17:19;100232.96;;;8.12;100.00
57900;BME280;60605;53.716;19.940;2024-03-22T10:22:23;100219.44;;;8.12;100.00
57900;BME280;60605;53.716;19.940;2024-03-22T10:27:27;100225.16;;;8.14;100.00
57900;BME280;60605;53.716;19.940;2024-03-22T10:32:31;100224.66;;;8.15;100.00
57900;BME280;60605;53.716;19.940;2024-03-22T10:37:35;100228.98;;;8.24;100.00
57900;BME280;60605;53.716;19.940;2024-03-22T10:42:38;100222.85;;;8.29;100.00
57900;BME280;60605;53.716;19.940;2024-03-22T10:47:41;100210.73;;;8.22;100.00
57900;BME280;60605;53.716;19.940;2024-03-22T10:52:52;100202.33;;;8.16;100.00
57900;BME280;60605;53.716;19.940;2024-03-22T10:57:56;100196.13;;;8.26;100.00
57900;BME280;60605;53.716;19.940;2024-03-22T11:02:59;100184.50;;;8.44;100.00
57900;BME280;60605;53.716;19.940;2024-03-22T11:08:05;100172.73;;;8.72;100.00
57900;BME280;60605;53.716;19.940;2024-03-22T11:13:08;100163.30;;;8.91;100.00
57900;BME280;60605;53.716;19.940;2024-03-22T11:18:12;100145.23;;;9.21;100.00
57900;BME280;60605;53.716;19.940;2024-03-22T11:23:14;100131.03;;;9.68;100.00
57900;BME280;60605;53.716;19.940;2024-03-22T11:28:17;100134.36;;;10.04;100.00
57900;BME280;60605;53.716;19.940;2024-03-22T11:33:21;100124.95;;;10.18;100.00
57900;BME280;60605;53.716;19.940;2024-03-22T11:38:28;100116.04;;;10.21;100.00
57900;BME280;60605;53.716;19.940;2024-03-22T11:43:33;100112.04;;;10.13;100.00
57900;BME280;60605;53.716;19.940;2024-03-22T11:48:40;100108.17;;;10.02;100.00
57900;BME280;60605;53.716;19.940;2024-03-22T11:53:52;100093.04;;;9.89;100.00
57900;BME280;60605;53.716;19.940;2024-03-22T11:58:59;100074.95;;;9.70;100.00
57900;BME280;60605;53.716;19.940;2024-03-22T12:04:03;100065.23;;;9.57;100.00
57900;BME280;60605;53.716;19.940;2024-03-22T12:09:06;100061.00;;;9.53;100.00
57900;BME280;60605;53.716;19.940;2024-03-22T12:14:09;100059.66;;;9.63;100.00
57900;BME280;60605;53.716;19.940;2024-03-22T12:19:13;100051.25;;;9.84;100.00
57900;BME280;60605;53.716;19.940;2024-03-22T12:24:16;100034.70;;;9.94;100.00
57900;BME280;60605;53.716;19.940;2024-03-22T12:29:20;100033.46;;;9.92;100.00
57900;BME280;60605;53.716;19.940;2024-03-22T12:34:23;100028.59;;;9.82;100.00
57900;BME280;60605;53.716;19.940;2024-03-22T12:39:26;100023.64;;;9.72;100.00
57900;BME280;60605;53.716;19.940;2024-03-22T12:44:29;100021.50;;;9.61;100.00
57900;BME280;60605;53.716;19.940;2024-03-22T12:49:34;100021.58;;;9.53;100.00
57900;BME280;60605;53.716;19.940;2024-03-22T12:54:37;100017.15;;;9.42;100.00
57900;BME280;60605;53.716;19.940;2024-03-22T12:59:40;100006.70;;;9.33;100.00
57900;BME280;60605;53.716;19.940;2024-03-22T13:04:42;99999.89;;;9.28;100.00
57900;BME280;60605;53.716;19.940;2024-03-22T13:09:46;99981.56;;;9.20;100.00
57900;BME280;60605;53.716;19.940;2024-03-22T13:14:49;99981.52;;;9.23;100.00
57900;BME280;60605;53.716;19.940;2024-03-22T13:19:58;99984.37;;;9.21;100.00
57900;BME280;60605;53.716;19.940;2024-03-22T13:25:01;99970.81;;;9.19;100.00
57900;BME280;60605;53.716;19.940;2024-03-22T13:30:05;99951.33;;;9.15;100.00
57900;BME280;60605;53.716;19.940;2024-03-22T13:35:12;99940.52;;;9.07;100.00
57900;BME280;60605;53.716;19.940;2024-03-22T13:40:16;99939.16;;;9.01;100.00
57900;BME280;60605;53.716;19.940;2024-03-22T13:45:19;99933.52;;;8.99;100.00
57900;BME280;60605;53.716;19.940;2024-03-22T13:50:23;99920.02;;;8.94;100.00
57900;BME280;60605;53.716;19.940;2024-03-22T13:55:26;99907.46;;;8.92;100.00
57900;BME280;60605;53.716;19.940;2024-03-22T14:00:29;99897.98;;;8.88;100.00
57900;BME280;60605;53.716;19.940;2024-03-22T14:05:32;99891.30;;;8.86;100.00
57900;BME280;60605;53.716;19.940;2024-03-22T14:10:36;99880.58;;;8.79;100.00
57900;BME280;60605;53.716;19.940;2024-03-22T14:15:39;99867.66;;;8.73;100.00
57900;BME280;60605;53.716;19.940;2024-03-22T14:20:44;99856.98;;;8.69;100.00
57900;BME280;60605;53.716;19.940;2024-03-22T14:25:47;99849.14;;;8.68;100.00
57900;BME280;60605;53.716;19.940;2024-03-22T14:30:52;99853.94;;;8.68;100.00
57900;BME280;60605;53.716;19.940;2024-03-22T14:35:55;99843.01;;;8.66;100.00
57900;BME280;60605;53.716;19.940;2024-03-22T14:40:59;99829.13;;;8.66;100.00
57900;BME280;60605;53.716;19.940;2024-03-22T14:46:02;99824.68;;;8.72;100.00
57900;BME280;60605;53.716;19.940;2024-03-22T14:51:06;99823.55;;;8.76;100.00
57900;BME280;60605;53.716;19.940;2024-03-22T14:56:10;99818.83;;;8.77;100.00
57900;BME280;60605;53.716;19.940;2024-03-22T15:01:15;99811.71;;;8.77;100.00
57900;BME280;60605;53.716;19.940;2024-03-22T15:06:18;99807.08;;;8.77;100.00
57900;BME280;60605;53.716;19.940;2024-03-22T15:11:21;99798.37;;;8.78;100.00
57900;BME280;60605;53.716;19.940;2024-03-22T15:16:23;99799.19;;;8.79;100.00
57900;BME280;60605;53.716;19.940;2024-03-22T15:21:26;99799.41;;;8.79;100.00
57900;BME280;60605;53.716;19.940;2024-03-22T15:26:29;99799.41;;;8.79;100.00
57900;BME280;60605;53.716;19.940;2024-03-22T15:31:32;99786.23;;;8.82;100.00
57900;BME280;60605;53.716;19.940;2024-03-22T15:36:34;99774.27;;;8.89;100.00
57900;BME280;60605;53.716;19.940;2024-03-22T15:41:38;99756.44;;;8.95;100.00
57900;BME280;60605;53.716;19.940;2024-03-22T15:46:41;99745.80;;;9.02;100.00
57900;BME280;60605;53.716;19.940;2024-03-22T15:51:44;99739.36;;;9.07;100.00
57900;BME280;60605;53.716;19.940;2024-03-22T15:56:47;99729.05;;;9.09;100.00
57900;BME280;60605;53.716;19.940;2024-03-22T16:01:50;99721.52;;;9.07;100.00
57900;BME280;60605;53.716;19.940;2024-03-22T16:06:59;99725.21;;;9.04;100.00
57900;BME280;60605;53.716;19.940;2024-03-22T16:12:05;99726.17;;;9.00;100.00
57900;BME280;60605;53.716;19.940;2024-03-22T16:17:09;99718.48;;;8.95;100.00
57900;BME280;60605;53.716;19.940;2024-03-22T16:22:13;99714.34;;;8.92;100.00
57900;BME280;60605;53.716;19.940;2024-03-22T16:27:18;99699.66;;;8.89;100.00
57900;BME280;60605;53.716;19.940;2024-03-22T16:32:21;99689.59;;;8.87;100.00
57900;BME280;60605;53.716;19.940;2024-03-22T16:37:24;99690.38;;;8.84;100.00
57900;BME280;60605;53.716;19.940;2024-03-22T16:42:27;99691.30;;;8.82;100.00
57900;BME280;60605;53.716;19.940;2024-03-22T16:47:30;99694.43;;;8.81;100.00
57900;BME280;60605;53.716;19.940;2024-03-22T16:52:37;99686.17;;;8.80;100.00
57900;BME280;60605;53.716;19.940;2024-03-22T16:57:40;99680.95;;;8.79;100.00
57900;BME280;60605;53.716;19.940;2024-03-22T17:02:44;99681.22;;;8.78;100.00
57900;BME280;60605;53.716;19.940;2024-03-22T17:07:47;99679.73;;;8.77;100.00
57900;BME280;60605;53.716;19.940;2024-03-22T17:12:50;99677.66;;;8.77;100.00
57900;BME280;60605;53.716;19.940;2024-03-22T17:17:53;99667.68;;;8.76;100.00
57900;BME280;60605;53.716;19.940;2024-03-22T17:22:56;99663.48;;;8.77;100.00
57900;BME280;60605;53.716;19.940;2024-03-22T17:27:59;99661.81;;;8.78;100.00
57900;BME280;60605;53.716;19.940;2024-03-22T17:33:03;99655.75;;;8.78;100.00
57900;BME280;60605;53.716;19.940;2024-03-22T17:38:06;99650.70;;;8.79;100.00
57900;BME280;60605;53.716;19.940;2024-03-22T17:43:12;99649.50;;;8.78;100.00
57900;BME280;60605;53.716;19.940;2024-03-22T17:48:16;99644.63;;;8.79;100.00
57900;BME280;60605;53.716;19.940;2024-03-22T17:53:19;99644.95;;;8.81;100.00
57900;BME280;60605;53.716;19.940;2024-03-22T17:58:23;99636.75;;;8.83;100.00
57900;BME280;60605;53.716;19.940;2024-03-22T18:03:26;99634.52;;;8.84;100.00
57900;BME280;60605;53.716;19.940;2024-03-22T18:08:31;99631.61;;;8.84;100.00
57900;BME280;60605;53.716;19.940;2024-03-22T18:13:34;99630.45;;;8.85;100.00
57900;BME280;60605;53.716;19.940;2024-03-22T18:18:40;99613.59;;;8.86;100.00
57900;BME280;60605;53.716;19.940;2024-03-22T18:23:44;99607.35;;;8.86;100.00
57900;BME280;60605;53.716;19.940;2024-03-22T18:28:48;99606.45;;;8.87;100.00
57900;BME280;60605;53.716;19.940;2024-03-22T18:33:51;99607.05;;;8.88;100.00
57900;BME280;60605;53.716;19.940;2024-03-22T18:38:54;99603.66;;;8.89;100.00
57900;BME280;60605;53.716;19.940;2024-03-22T18:43:59;99598.32;;;8.91;100.00
57900;BME280;60605;53.716;19.940;2024-03-22T18:49:02;99593.63;;;8.92;100.00
57900;BME280;60605;53.716;19.940;2024-03-22T18:54:09;99589.21;;;8.91;100.00
57900;BME280;60605;53.716;19.940;2024-03-22T18:59:12;99584.14;;;8.90;100.00
57900;BME280;60605;53.716;19.940;2024-03-22T19:04:17;99589.63;;;8.91;100.00
57900;BME280;60605;53.716;19.940;2024-03-22T19:09:20;99582.83;;;8.89;100.00
57900;BME280;60605;53.716;19.940;2024-03-22T19:14:23;99572.98;;;8.85;100.00
57900;BME280;60605;53.716;19.940;2024-03-22T19:19:26;99565.95;;;8.81;100.00
57900;BME280;60605;53.716;19.940;2024-03-22T19:24:29;99560.92;;;8.76;100.00
57900;BME280;60605;53.716;19.940;2024-03-22T19:29:33;99545.85;;;8.72;100.00
57900;BME280;60605;53.716;19.940;2024-03-22T19:34:37;99540.56;;;8.70;100.00
57900;BME280;60605;53.716;19.940;2024-03-22T19:39:41;99536.80;;;8.68;100.00
57900;BME280;60605;53.716;19.940;2024-03-22T19:44:45;99530.84;;;8.66;100.00
57900;BME280;60605;53.716;19.940;2024-03-22T19:49:49;99539.52;;;8.64;100.00
57900;BME280;60605;53.716;19.940;2024-03-22T19:54:52;99534.20;;;8.64;100.00
57900;BME280;60605;53.716;19.940;2024-03-22T19:59:55;99519.30;;;8.64;100.00
57900;BME280;60605;53.716;19.940;2024-03-22T20:04:58;99520.69;;;8.64;100.00
57900;BME280;60605;53.716;19.940;2024-03-22T20:10:01;99515.98;;;8.65;100.00
57900;BME280;60605;53.716;19.940;2024-03-22T20:15:07;99513.71;;;8.66;100.00
57900;BME280;60605;53.716;19.940;2024-03-22T20:20:11;99507.38;;;8.67;100.00
57900;BME280;60605;53.716;19.940;2024-03-22T20:25:16;99506.11;;;8.67;100.00
57900;BME280;60605;53.716;19.940;2024-03-22T20:30:19;99498.94;;;8.68;100.00
57900;BME280;60605;53.716;19.940;2024-03-22T20:35:22;99492.69;;;8.68;100.00
